sensor_id;sensor_type;location;lat;lon;timestamp;temperature;humidity
41457;DHT22;27197;51.752;5.220;2023-07-13T05:40:38;23.40;63.10
41457;DHT22;27197;51.752;5.220;2023-07-13T05:43:15;23.40;67.10
41457;DHT22;27197;51.752;5.220;2023-07-13T05:45:46;23.50;66.70
41457;DHT22;27197;51.752;5.220;2023-07-13T05:48:24;23.50;70.40
41457;DHT22;27197;51.752;5.220;2023-07-13T05:50:54;23.60;69.90
41457;DHT22;27197;51.752;5.220;2023-07-13T05:53:28;23.60;64.90
41457;DHT22;27197;51.752;5.220;2023-07-13T05:55:59;23.40;66.80
41457;DHT22;27197;51.752;5.220;2023-07-13T05:58:33;23.40;69.70
41457;DHT22;27197;51.752;5.220;2023-07-13T06:01:08;23.50;70.10
41457;DHT22;27197;51.752;5.220;2023-07-13T06:03:39;23.70;65.30
41457;DHT22;27197;51.752;5.220;2023-07-13T06:06:10;23.60;67.90
41457;DHT22;27197;51.752;5.220;2023-07-13T06:08:42;23.40;66.90
41457;DHT22;27197;51.752;5.220;2023-07-13T06:11:18;23.40;67.80
41457;DHT22;27197;51.752;5.220;2023-07-13T06:13:49;23.40;67.40
41457;DHT22;27197;51.752;5.220;2023-07-13T06:16:21;23.40;67.80
41457;DHT22;27197;51.752;5.220;2023-07-13T06:18:54;23.30;66.70
41457;DHT22;27197;51.752;5.220;2023-07-13T06:21:24;23.40;66.80
41457;DHT22;27197;51.752;5.220;2023-07-13T06:23:55;23.40;66.10
41457;DHT22;27197;51.752;5.220;2023-07-13T06:26:24;23.40;67.10
41457;DHT22;27197;51.752;5.220;2023-07-13T06:29:00;23.30;64.00
41457;DHT22;27197;51.752;5.220;2023-07-13T06:31:30;23.10;64.50
41457;DHT22;27197;51.752;5.220;2023-07-13T06:34:03;23.20;66.00
41457;DHT22;27197;51.752;5.220;2023-07-13T06:36:34;23.20;64.50
41457;DHT22;27197;51.752;5.220;2023-07-13T06:39:06;23.00;65.20
41457;DHT22;27197;51.752;5.220;2023-07-13T06:41:38;22.90;66.00
41457;DHT22;27197;51.752;5.220;2023-07-13T06:44:10;23.10;66.60
41457;DHT22;27197;51.752;5.220;2023-07-13T06:46:43;23.20;65.90
41457;DHT22;27197;51.752;5.220;2023-07-13T06:49:11;23.10;66.30
41457;DHT22;27197;51.752;5.220;2023-07-13T06:51:42;23.10;65.90
41457;DHT22;27197;51.752;5.220;2023-07-13T06:54:16;23.20;65.80
41457;DHT22;27197;51.752;5.220;2023-07-13T06:56:47;23.40;64.60
41457;DHT22;27197;51.752;5.220;2023-07-13T06:59:20;23.40;64.80
41457;DHT22;27197;51.752;5.220;2023-07-13T07:01:50;23.40;64.10
41457;DHT22;27197;51.752;5.220;2023-07-13T07:04:21;23.40;64.20
41457;DHT22;27197;51.752;5.220;2023-07-13T07:06:51;23.20;65.00
41457;DHT22;27197;51.752;5.220;2023-07-13T07:09:24;23.10;65.00
41457;DHT22;27197;51.752;5.220;2023-07-13T07:11:53;23.20;65.20
41457;DHT22;27197;51.752;5.220;2023-07-13T07:14:27;23.20;64.80
41457;DHT22;27197;51.752;5.220;2023-07-13T07:16:59;23.10;65.10
41457;DHT22;27197;51.752;5.220;2023-07-13T07:19:30;23.10;65.50
41457;DHT22;27197;51.752;5.220;2023-07-13T07:22:01;23.10;65.30
41457;DHT22;27197;51.752;5.220;2023-07-13T07:24:33;23.20;65.90
41457;DHT22;27197;51.752;5.220;2023-07-13T07:27:03;23.30;64.80
41457;DHT22;27197;51.752;5.220;2023-07-13T07:29:35;23.30;65.20
41457;DHT22;27197;51.752;5.220;2023-07-13T07:32:06;23.20;65.80
41457;DHT22;27197;51.752;5.220;2023-07-13T07:34:40;23.20;65.30
41457;DHT22;27197;51.752;5.220;2023-07-13T07:37:14;23.30;67.00
41457;DHT22;27197;51.752;5.220;2023-07-13T07:39:45;23.50;67.50
41457;DHT22;27197;51.752;5.220;2023-07-13T07:42:17;23.50;67.70
41457;DHT22;27197;51.752;5.220;2023-07-13T07:44:52;23.50;67.80
41457;DHT22;27197;51.752;5.220;2023-07-13T07:47:21;23.60;65.40
41457;DHT22;27197;51.752;5.220;2023-07-13T07:49:54;23.40;64.70
41457;DHT22;27197;51.752;5.220;2023-07-13T07:52:23;23.30;68.50
41457;DHT22;27197;51.752;5.220;2023-07-13T07:54:54;23.50;66.70
41457;DHT22;27197;51.752;5.220;2023-07-13T07:57:26;23.40;64.80
41457;DHT22;27197;51.752;5.220;2023-07-13T07:59:59;23.40;67.40
41457;DHT22;27197;51.752;5.220;2023-07-13T08:02:31;23.40;65.80
41457;DHT22;27197;51.752;5.220;2023-07-13T08:05:00;23.40;65.90
41457;DHT22;27197;51.752;5.220;2023-07-13T08:07:31;23.50;67.80
41457;DHT22;27197;51.752;5.220;2023-07-13T08:10:02;23.70;66.10
41457;DHT22;27197;51.752;5.220;2023-07-13T08:12:38;23.60;65.00
41457;DHT22;27197;51.752;5.220;2023-07-13T08:15:12;23.60;66.00
41457;DHT22;27197;51.752;5.220;2023-07-13T08:17:45;23.60;66.20
41457;DHT22;27197;51.752;5.220;2023-07-13T08:20:17;23.60;64.50
41457;DHT22;27197;51.752;5.220;2023-07-13T12:01:55;23.90;57.60
41457;DHT22;27197;51.752;5.220;2023-07-13T12:04:34;23.90;57.70
41457;DHT22;27197;51.752;5.220;2023-07-13T12:07:14;23.90;58.40
41457;DHT22;27197;51.752;5.220;2023-07-13T12:09:43;24.00;58.70
41457;DHT22;27197;51.752;5.220;2023-07-13T12:12:16;24.00;58.00
41457;DHT22;27197;51.752;5.220;2023-07-13T12:14:51;24.00;56.90
41457;DHT22;27197;51.752;5.220;2023-07-13T12:17:24;24.00;56.40
41457;DHT22;27197;51.752;5.220;2023-07-13T12:19:56;24.00;56.30
41457;DHT22;27197;51.752;5.220;2023-07-13T12:22:31;23.90;55.90
41457;DHT22;27197;51.752;5.220;2023-07-13T12:25:05;23.90;56.60
41457;DHT22;27197;51.752;5.220;2023-07-13T12:27:41;24.00;55.90
41457;DHT22;27197;51.752;5.220;2023-07-13T12:30:31;24.00;55.70
41457;DHT22;27197;51.752;5.220;2023-07-13T12:33:07;24.00;55.90
41457;DHT22;27197;51.752;5.220;2023-07-13T12:35:49;24.00;55.60
41457;DHT22;27197;51.752;5.220;2023-07-13T12:38:21;24.00;55.30
41457;DHT22;27197;51.752;5.220;2023-07-13T12:41:00;24.00;55.70
41457;DHT22;27197;51.752;5.220;2023-07-13T12:43:33;24.00;55.70
41457;DHT22;27197;51.752;5.220;2023-07-13T12:46:28;24.00;55.30
41457;DHT22;27197;51.752;5.220;2023-07-13T12:48:43;24.00;55.90
41457;DHT22;27197;51.752;5.220;2023-07-13T12:51:13;24.00;55.40
41457;DHT22;27197;51.752;5.220;2023-07-13T12:53:49;24.00;54.90
41457;DHT22;27197;51.752;5.220;2023-07-13T12:56:27;24.00;54.50
41457;DHT22;27197;51.752;5.220;2023-07-13T12:58:57;24.00;54.70
41457;DHT22;27197;51.752;5.220;2023-07-13T13:01:32;24.00;55.30
41457;DHT22;27197;51.752;5.220;2023-07-13T13:04:04;24.00;55.90
41457;DHT22;27197;51.752;5.220;2023-07-13T13:06:37;24.10;55.80
41457;DHT22;27197;51.752;5.220;2023-07-13T13:11:42;24.10;56.20
41457;DHT22;27197;51.752;5.220;2023-07-13T13:14:12;24.10;56.80
41457;DHT22;27197;51.752;5.220;2023-07-13T13:16:48;24.10;56.60
41457;DHT22;27197;51.752;5.220;2023-07-13T13:19:23;24.10;56.00
41457;DHT22;27197;51.752;5.220;2023-07-13T13:21:54;24.10;56.20
41457;DHT22;27197;51.752;5.220;2023-07-13T13:24:28;24.10;56.20
41457;DHT22;27197;51.752;5.220;2023-07-13T13:44:07;24.10;55.40
41457;DHT22;27197;51.752;5.220;2023-07-13T13:46:41;24.10;56.10
41457;DHT22;27197;51.752;5.220;2023-07-13T13:49:16;24.10;56.10
41457;DHT22;27197;51.752;5.220;2023-07-13T13:51:50;24.10;56.30
41457;DHT22;27197;51.752;5.220;2023-07-13T13:54:21;24.10;56.00
41457;DHT22;27197;51.752;5.220;2023-07-13T13:56:53;24.00;56.20
41457;DHT22;27197;51.752;5.220;2023-07-13T13:59:24;24.00;56.30
41457;DHT22;27197;51.752;5.220;2023-07-13T14:01:54;24.00;55.80
41457;DHT22;27197;51.752;5.220;2023-07-13T14:04:28;24.00;56.70
41457;DHT22;27197;51.752;5.220;2023-07-13T14:15:03;24.10;57.90
41457;DHT22;27197;51.752;5.220;2023-07-13T14:17:32;24.10;57.70
41457;DHT22;27197;51.752;5.220;2023-07-13T14:20:09;24.00;57.90
41457;DHT22;27197;51.752;5.220;2023-07-13T14:22:38;24.00;58.70
41457;DHT22;27197;51.752;5.220;2023-07-13T14:25:16;23.90;61.70
41457;DHT22;27197;51.752;5.220;2023-07-13T14:27:40;23.80;62.20
41457;DHT22;27197;51.752;5.220;2023-07-13T14:30:20;23.90;62.00
41457;DHT22;27197;51.752;5.220;2023-07-13T14:32:52;24.00;62.30
41457;DHT22;27197;51.752;5.220;2023-07-13T14:35:22;24.00;61.90
41457;DHT22;27197;51.752;5.220;2023-07-13T14:37:54;24.00;62.10
41457;DHT22;27197;51.752;5.220;2023-07-13T14:40:29;24.10;62.30
41457;DHT22;27197;51.752;5.220;2023-07-13T14:42:59;24.10;62.60
41457;DHT22;27197;51.752;5.220;2023-07-13T14:45:31;24.10;62.50
41457;DHT22;27197;51.752;5.220;2023-07-13T14:48:01;24.30;62.80
41457;DHT22;27197;51.752;5.220;2023-07-13T14:50:36;24.30;62.80
41457;DHT22;27197;51.752;5.220;2023-07-13T14:53:08;24.30;63.00
41457;DHT22;27197;51.752;5.220;2023-07-13T14:55:37;24.30;63.00
41457;DHT22;27197;51.752;5.220;2023-07-13T14:58:14;24.30;63.40
41457;DHT22;27197;51.752;5.220;2023-07-13T15:00:42;24.30;63.40
41457;DHT22;27197;51.752;5.220;2023-07-13T15:03:18;24.30;63.60
41457;DHT22;27197;51.752;5.220;2023-07-13T15:05:51;24.40;63.70
41457;DHT22;27197;51.752;5.220;2023-07-13T15:08:21;24.30;63.90
41457;DHT22;27197;51.752;5.220;2023-07-13T15:10:51;24.40;63.50
41457;DHT22;27197;51.752;5.220;2023-07-13T15:13:23;24.40;63.90
41457;DHT22;27197;51.752;5.220;2023-07-13T15:15:55;24.40;64.00
41457;DHT22;27197;51.752;5.220;2023-07-13T15:18:25;24.40;63.90
41457;DHT22;27197;51.752;5.220;2023-07-13T15:20:57;24.40;64.10
41457;DHT22;27197;51.752;5.220;2023-07-13T15:23:30;24.40;63.70
41457;DHT22;27197;51.752;5.220;2023-07-13T15:26:00;24.40;63.80
41457;DHT22;27197;51.752;5.220;2023-07-13T15:28:31;24.50;63.90
41457;DHT22;27197;51.752;5.220;2023-07-13T15:31:01;24.50;63.40
41457;DHT22;27197;51.752;5.220;2023-07-13T15:33:31;24.50;62.60
41457;DHT22;27197;51.752;5.220;2023-07-13T15:36:06;24.50;63.20
41457;DHT22;27197;51.752;5.220;2023-07-13T15:38:38;24.50;62.40
41457;DHT22;27197;51.752;5.220;2023-07-13T15:41:21;24.50;62.50
41457;DHT22;27197;51.752;5.220;2023-07-13T15:43:51;24.60;61.70
41457;DHT22;27197;51.752;5.220;2023-07-13T15:46:23;24.50;64.20
41457;DHT22;27197;51.752;5.220;2023-07-13T15:48:57;24.50;62.10
41457;DHT22;27197;51.752;5.220;2023-07-13T15:51:32;24.50;61.50
41457;DHT22;27197;51.752;5.220;2023-07-13T15:54:04;24.60;59.80
41457;DHT22;27197;51.752;5.220;2023-07-13T15:56:36;24.60;61.70
41457;DHT22;27197;51.752;5.220;2023-07-13T15:59:11;24.60;62.50
41457;DHT22;27197;51.752;5.220;2023-07-13T16:01:40;24.60;61.10
41457;DHT22;27197;51.752;5.220;2023-07-13T16:17:25;24.60;59.80
41457;DHT22;27197;51.752;5.220;2023-07-13T16:19:56;24.60;59.40
41457;DHT22;27197;51.752;5.220;2023-07-13T16:22:30;24.60;60.10
41457;DHT22;27197;51.752;5.220;2023-07-13T16:25:00;24.60;59.90
41457;DHT22;27197;51.752;5.220;2023-07-13T16:27:32;24.60;59.20
41457;DHT22;27197;51.752;5.220;2023-07-13T16:30:13;24.60;60.00
41457;DHT22;27197;51.752;5.220;2023-07-13T16:32:34;24.60;59.50
41457;DHT22;27197;51.752;5.220;2023-07-13T16:35:05;24.60;59.90
41457;DHT22;27197;51.752;5.220;2023-07-13T16:37:36;24.60;60.10
41457;DHT22;27197;51.752;5.220;2023-07-13T16:40:19;24.60;58.90
41457;DHT22;27197;51.752;5.220;2023-07-13T16:42:48;24.60;57.90
41457;DHT22;27197;51.752;5.220;2023-07-13T16:45:20;24.60;58.70
41457;DHT22;27197;51.752;5.220;2023-07-13T16:47:53;24.60;58.00
41457;DHT22;27197;51.752;5.220;2023-07-13T16:50:31;24.60;59.50
41457;DHT22;27197;51.752;5.220;2023-07-13T16:53:01;24.60;59.50
41457;DHT22;27197;51.752;5.220;2023-07-13T16:55:31;24.60;59.50
41457;DHT22;27197;51.752;5.220;2023-07-13T16:58:05;24.60;59.10
41457;DHT22;27197;51.752;5.220;2023-07-13T17:00:34;24.60;59.30
41457;DHT22;27197;51.752;5.220;2023-07-13T17:03:07;24.60;59.30
41457;DHT22;27197;51.752;5.220;2023-07-13T17:05:41;24.60;59.60
41457;DHT22;27197;51.752;5.220;2023-07-13T17:08:21;24.60;61.00
41457;DHT22;27197;51.752;5.220;2023-07-13T17:10:55;24.60;58.70
41457;DHT22;27197;51.752;5.220;2023-07-13T17:13:29;24.60;59.00
41457;DHT22;27197;51.752;5.220;2023-07-13T17:16:00;24.60;60.20
41457;DHT22;27197;51.752;5.220;2023-07-13T17:18:34;24.60;61.70
41457;DHT22;27197;51.752;5.220;2023-07-13T17:21:12;24.60;59.60
41457;DHT22;27197;51.752;5.220;2023-07-13T17:24:00;24.60;58.60
41457;DHT22;27197;51.752;5.220;2023-07-13T17:26:32;24.60;58.80
41457;DHT22;27197;51.752;5.220;2023-07-13T17:29:01;24.60;59.00
41457;DHT22;27197;51.752;5.220;2023-07-13T17:31:33;24.60;59.40
41457;DHT22;27197;51.752;5.220;2023-07-13T17:34:03;24.60;61.80
41457;DHT22;27197;51.752;5.220;2023-07-13T17:36:33;24.60;60.00
41457;DHT22;27197;51.752;5.220;2023-07-13T17:39:14;24.60;61.10
41457;DHT22;27197;51.752;5.220;2023-07-13T17:41:45;24.70;59.30
41457;DHT22;27197;51.752;5.220;2023-07-13T17:44:17;24.70;59.70
41457;DHT22;27197;51.752;5.220;2023-07-13T17:46:48;24.70;61.70
41457;DHT22;27197;51.752;5.220;2023-07-13T17:49:21;24.60;61.60
41457;DHT22;27197;51.752;5.220;2023-07-13T17:51:54;24.60;60.80
41457;DHT22;27197;51.752;5.220;2023-07-13T17:54:26;24.70;62.30
41457;DHT22;27197;51.752;5.220;2023-07-13T17:56:58;24.70;61.20
41457;DHT22;27197;51.752;5.220;2023-07-13T17:59:28;24.60;60.30
41457;DHT22;27197;51.752;5.220;2023-07-13T18:01:58;24.60;60.10
41457;DHT22;27197;51.752;5.220;2023-07-13T18:04:29;24.70;59.80
41457;DHT22;27197;51.752;5.220;2023-07-13T18:06:59;24.70;61.50
41457;DHT22;27197;51.752;5.220;2023-07-13T18:09:32;24.70;59.10
41457;DHT22;27197;51.752;5.220;2023-07-13T18:12:01;24.70;62.40
41457;DHT22;27197;51.752;5.220;2023-07-13T18:14:32;24.70;63.60
41457;DHT22;27197;51.752;5.220;2023-07-13T18:17:02;24.70;58.80
41457;DHT22;27197;51.752;5.220;2023-07-13T18:19:45;24.70;60.00
41457;DHT22;27197;51.752;5.220;2023-07-13T18:22:17;24.70;61.20
41457;DHT22;27197;51.752;5.220;2023-07-13T18:24:51;24.60;59.00
41457;DHT22;27197;51.752;5.220;2023-07-13T18:27:23;24.70;60.30
41457;DHT22;27197;51.752;5.220;2023-07-13T18:29:53;24.70;62.60
41457;DHT22;27197;51.752;5.220;2023-07-13T18:32:25;24.60;60.10
41457;DHT22;27197;51.752;5.220;2023-07-13T18:34:54;24.70;61.60
41457;DHT22;27197;51.752;5.220;2023-07-13T18:37:25;24.70;61.50
41457;DHT22;27197;51.752;5.220;2023-07-13T18:39:57;24.70;59.00
41457;DHT22;27197;51.752;5.220;2023-07-13T18:42:32;24.60;64.50
41457;DHT22;27197;51.752;5.220;2023-07-13T18:45:01;24.70;62.70
41457;DHT22;27197;51.752;5.220;2023-07-13T18:47:33;24.60;60.80
41457;DHT22;27197;51.752;5.220;2023-07-13T18:50:17;24.60;61.00
41457;DHT22;27197;51.752;5.220;2023-07-13T18:52:44;24.50;61.00
41457;DHT22;27197;51.752;5.220;2023-07-13T18:55:18;24.60;65.40
41457;DHT22;27197;51.752;5.220;2023-07-13T18:57:51;24.60;59.40
41457;DHT22;27197;51.752;5.220;2023-07-13T19:00:25;24.60;63.00
41457;DHT22;27197;51.752;5.220;2023-07-13T19:03:00;24.70;66.40
41457;DHT22;27197;51.752;5.220;2023-07-13T19:05:33;24.70;66.60
41457;DHT22;27197;51.752;5.220;2023-07-13T19:08:04;24.80;66.90
41457;DHT22;27197;51.752;5.220;2023-07-13T19:10:37;24.80;66.50
41457;DHT22;27197;51.752;5.220;2023-07-13T19:13:09;24.90;67.10
41457;DHT22;27197;51.752;5.220;2023-07-13T19:15:41;24.90;66.80
41457;DHT22;27197;51.752;5.220;2023-07-13T19:18:17;24.90;66.40
41457;DHT22;27197;51.752;5.220;2023-07-13T19:20:56;24.90;63.20
41457;DHT22;27197;51.752;5.220;2023-07-13T19:23:36;24.80;59.50
41457;DHT22;27197;51.752;5.220;2023-07-13T19:44:29;24.60;60.20
41457;DHT22;27197;51.752;5.220;2023-07-13T19:47:01;24.60;60.00
41457;DHT22;27197;51.752;5.220;2023-07-13T19:49:30;24.60;60.30
41457;DHT22;27197;51.752;5.220;2023-07-13T19:52:01;24.60;59.20
41457;DHT22;27197;51.752;5.220;2023-07-13T19:54:30;24.70;60.50
41457;DHT22;27197;51.752;5.220;2023-07-13T19:57:04;24.70;60.90
41457;DHT22;27197;51.752;5.220;2023-07-13T19:59:34;24.70;60.50
41457;DHT22;27197;51.752;5.220;2023-07-13T20:02:04;24.70;59.90
41457;DHT22;27197;51.752;5.220;2023-07-13T20:04:34;24.70;62.80
41457;DHT22;27197;51.752;5.220;2023-07-13T20:07:12;24.80;63.20
41457;DHT22;27197;51.752;5.220;2023-07-13T20:09:42;24.70;62.10
41457;DHT22;27197;51.752;5.220;2023-07-13T20:12:20;24.80;59.70
41457;DHT22;27197;51.752;5.220;2023-07-13T20:14:49;24.70;60.10
41457;DHT22;27197;51.752;5.220;2023-07-13T20:17:27;24.70;61.20
41457;DHT22;27197;51.752;5.220;2023-07-13T20:19:56;24.70;61.20
41457;DHT22;27197;51.752;5.220;2023-07-13T20:22:25;24.70;61.50
41457;DHT22;27197;51.752;5.220;2023-07-13T20:24:59;24.80;62.00
41457;DHT22;27197;51.752;5.220;2023-07-13T20:27:29;24.70;58.40
41457;DHT22;27197;51.752;5.220;2023-07-13T20:30:00;24.50;56.60
41457;DHT22;27197;51.752;5.220;2023-07-13T20:32:29;24.30;56.50
41457;DHT22;27197;51.752;5.220;2023-07-13T20:35:00;24.20;57.00
41457;DHT22;27197;51.752;5.220;2023-07-13T20:37:37;24.20;58.70
41457;DHT22;27197;51.752;5.220;2023-07-13T20:40:14;24.10;57.10
41457;DHT22;27197;51.752;5.220;2023-07-13T20:42:48;24.00;56.70
41457;DHT22;27197;51.752;5.220;2023-07-13T20:45:19;23.80;56.90
41457;DHT22;27197;51.752;5.220;2023-07-13T20:47:51;23.70;57.00
41457;DHT22;27197;51.752;5.220;2023-07-13T20:50:26;23.70;57.30
41457;DHT22;27197;51.752;5.220;2023-07-13T20:53:01;23.60;57.50
41457;DHT22;27197;51.752;5.220;2023-07-13T20:55:32;24.00;66.50
41457;DHT22;27197;51.752;5.220;2023-07-13T20:58:03;24.30;66.00
41457;DHT22;27197;51.752;5.220;2023-07-13T21:00:35;24.40;65.40
41457;DHT22;27197;51.752;5.220;2023-07-13T21:03:25;24.60;64.90
41457;DHT22;27197;51.752;5.220;2023-07-13T21:05:43;24.70;64.50
41457;DHT22;27197;51.752;5.220;2023-07-13T21:08:17;24.70;64.40
41457;DHT22;27197;51.752;5.220;2023-07-13T21:10:48;24.70;64.00
41457;DHT22;27197;51.752;5.220;2023-07-13T21:13:19;24.80;64.00
41457;DHT22;27197;51.752;5.220;2023-07-13T21:15:50;24.80;63.70
41457;DHT22;27197;51.752;5.220;2023-07-13T21:18:26;24.80;63.60
41457;DHT22;27197;51.752;5.220;2023-07-13T21:20:57;24.80;63.50
41457;DHT22;27197;51.752;5.220;2023-07-13T21:23:34;24.90;63.60
41457;DHT22;27197;51.752;5.220;2023-07-13T21:26:09;24.90;63.60
41457;DHT22;27197;51.752;5.220;2023-07-13T21:28:43;24.90;63.20
41457;DHT22;27197;51.752;5.220;2023-07-13T21:33:55;24.90;62.70
41457;DHT22;27197;51.752;5.220;2023-07-13T21:36:25;24.90;63.10
41457;DHT22;27197;51.752;5.220;2023-07-13T21:39:01;24.90;63.70
41457;DHT22;27197;51.752;5.220;2023-07-13T21:41:35;24.90;62.90
41457;DHT22;27197;51.752;5.220;2023-07-13T21:44:15;24.90;63.00
41457;DHT22;27197;51.752;5.220;2023-07-13T21:46:40;24.90;63.00
41457;DHT22;27197;51.752;5.220;2023-07-13T21:49:14;24.90;62.80
41457;DHT22;27197;51.752;5.220;2023-07-13T21:51:45;24.90;62.80
41457;DHT22;27197;51.752;5.220;2023-07-13T21:54:19;24.80;62.80
41457;DHT22;27197;51.752;5.220;2023-07-13T21:56:51;24.90;62.80
41457;DHT22;27197;51.752;5.220;2023-07-13T21:59:26;24.90;62.20
41457;DHT22;27197;51.752;5.220;2023-07-13T22:02:01;24.90;62.60
41457;DHT22;27197;51.752;5.220;2023-07-13T22:04:31;24.90;63.00
41457;DHT22;27197;51.752;5.220;2023-07-13T22:07:02;24.90;62.90
41457;DHT22;27197;51.752;5.220;2023-07-13T22:09:35;24.90;62.60
41457;DHT22;27197;51.752;5.220;2023-07-13T22:12:07;24.90;62.90
41457;DHT22;27197;51.752;5.220;2023-07-13T22:14:41;24.90;62.60
41457;DHT22;27197;51.752;5.220;2023-07-13T22:22:15;24.80;61.10
